sensor_id;sensor_type;location;lat;lon;timestamp;P1;durP1;ratioP1;P2;durP2;ratioP2
62153;SDS011;48140;45.486;9.226;2022-07-01T00:02:10;1.75;;;1.05;;
62153;SDS011;48140;45.486;9.226;2022-07-01T00:04:36;1.60;;;1.20;;
62153;SDS011;48140;45.486;9.226;2022-07-01T00:07:02;3.90;;;1.40;;
62153;SDS011;48140;45.486;9.226;2022-07-01T00:09:27;1.58;;;1.10;;
62153;SDS011;48140;45.486;9.226;2022-07-01T00:11:53;1.55;;;1.17;;
62153;SDS011;48140;45.486;9.226;2022-07-01T00:14:19;3.97;;;1.60;;
62153;SDS011;48140;45.486;9.226;2022-07-01T00:16:47;5.93;;;1.40;;
62153;SDS011;48140;45.486;9.226;2022-07-01T00:19:14;4.03;;;1.92;;
62153;SDS011;48140;45.486;9.226;2022-07-01T00:21:39;6.65;;;1.63;;
62153;SDS011;48140;45.486;9.226;2022-07-01T00:24:05;3.97;;;1.63;;
62153;SDS011;48140;45.486;9.226;2022-07-01T00:26:31;2.70;;;1.40;;
62153;SDS011;48140;45.486;9.226;2022-07-01T00:28:57;4.20;;;1.80;;
62153;SDS011;48140;45.486;9.226;2022-07-01T00:31:23;3.45;;;1.80;;
62153;SDS011;48140;45.486;9.226;2022-07-01T00:33:49;4.88;;;1.65;;
62153;SDS011;48140;45.486;9.226;2022-07-01T00:36:14;7.53;;;1.70;;
62153;SDS011;48140;45.486;9.226;2022-07-01T00:38:40;3.03;;;1.70;;
62153;SDS011;48140;45.486;9.226;2022-07-01T00:41:06;2.00;;;1.63;;
62153;SDS011;48140;45.486;9.226;2022-07-01T00:43:35;2.88;;;1.67;;
62153;SDS011;48140;45.486;9.226;2022-07-01T00:46:03;5.75;;;1.70;;
62153;SDS011;48140;45.486;9.226;2022-07-01T00:48:29;6.68;;;2.00;;
62153;SDS011;48140;45.486;9.226;2022-07-01T00:50:58;2.40;;;1.55;;
62153;SDS011;48140;45.486;9.226;2022-07-01T00:53:23;7.00;;;1.80;;
62153;SDS011;48140;45.486;9.226;2022-07-01T00:55:52;2.22;;;1.67;;
62153;SDS011;48140;45.486;9.226;2022-07-01T00:58:18;3.85;;;1.70;;
62153;SDS011;48140;45.486;9.226;2022-07-01T01:00:43;3.65;;;1.80;;
62153;SDS011;48140;45.486;9.226;2022-07-01T01:03:09;3.08;;;1.52;;
62153;SDS011;48140;45.486;9.226;2022-07-01T01:05:37;2.35;;;1.50;;
62153;SDS011;48140;45.486;9.226;2022-07-01T01:08:03;2.97;;;1.60;;
62153;SDS011;48140;45.486;9.226;2022-07-01T01:10:30;2.35;;;1.50;;
62153;SDS011;48140;45.486;9.226;2022-07-01T01:12:56;3.00;;;1.35;;
62153;SDS011;48140;45.486;9.226;2022-07-01T01:15:22;2.53;;;1.48;;
62153;SDS011;48140;45.486;9.226;2022-07-01T01:17:49;4.35;;;1.27;;
62153;SDS011;48140;45.486;9.226;2022-07-01T01:20:15;1.60;;;1.10;;
62153;SDS011;48140;45.486;9.226;2022-07-01T01:22:45;4.75;;;1.20;;
62153;SDS011;48140;45.486;9.226;2022-07-01T01:25:12;2.10;;;1.20;;
62153;SDS011;48140;45.486;9.226;2022-07-01T01:27:38;2.13;;;1.27;;
62153;SDS011;48140;45.486;9.226;2022-07-01T01:30:07;1.98;;;1.45;;
62153;SDS011;48140;45.486;9.226;2022-07-01T01:32:35;1.60;;;1.30;;
62153;SDS011;48140;45.486;9.226;2022-07-01T01:35:01;2.90;;;1.40;;
62153;SDS011;48140;45.486;9.226;2022-07-01T01:37:27;6.25;;;1.60;;
62153;SDS011;48140;45.486;9.226;2022-07-01T01:39:53;1.92;;;1.40;;
62153;SDS011;48140;45.486;9.226;2022-07-01T01:42:19;1.45;;;1.20;;
62153;SDS011;48140;45.486;9.226;2022-07-01T01:44:46;1.70;;;1.35;;
62153;SDS011;48140;45.486;9.226;2022-07-01T01:47:12;1.95;;;1.67;;
62153;SDS011;48140;45.486;9.226;2022-07-01T01:49:38;2.60;;;1.30;;
62153;SDS011;48140;45.486;9.226;2022-07-01T01:52:03;3.03;;;1.60;;
62153;SDS011;48140;45.486;9.226;2022-07-01T01:54:30;3.17;;;1.50;;
62153;SDS011;48140;45.486;9.226;2022-07-01T01:56:55;2.90;;;1.42;;
62153;SDS011;48140;45.486;9.226;2022-07-01T01:59:21;3.10;;;1.63;;
62153;SDS011;48140;45.486;9.226;2022-07-01T02:01:47;5.07;;;1.40;;
62153;SDS011;48140;45.486;9.226;2022-07-01T02:04:12;8.02;;;1.52;;
62153;SDS011;48140;45.486;9.226;2022-07-01T02:06:38;1.88;;;1.30;;
62153;SDS011;48140;45.486;9.226;2022-07-01T02:09:07;2.13;;;1.45;;
62153;SDS011;48140;45.486;9.226;2022-07-01T02:11:36;2.53;;;1.67;;
62153;SDS011;48140;45.486;9.226;2022-07-01T02:14:02;2.08;;;1.38;;
62153;SDS011;48140;45.486;9.226;2022-07-01T02:16:27;2.78;;;1.42;;
62153;SDS011;48140;45.486;9.226;2022-07-01T02:18:53;4.32;;;1.65;;
62153;SDS011;48140;45.486;9.226;2022-07-01T02:21:19;2.42;;;1.50;;
62153;SDS011;48140;45.486;9.226;2022-07-01T02:23:44;1.55;;;1.30;;
62153;SDS011;48140;45.486;9.226;2022-07-01T02:26:10;2.30;;;1.48;;
62153;SDS011;48140;45.486;9.226;2022-07-01T02:28:36;3.35;;;1.75;;
62153;SDS011;48140;45.486;9.226;2022-07-01T02:31:01;2.53;;;1.40;;
62153;SDS011;48140;45.486;9.226;2022-07-01T02:33:30;4.72;;;1.80;;
62153;SDS011;48140;45.486;9.226;2022-07-01T02:35:56;2.08;;;1.50;;
62153;SDS011;48140;45.486;9.226;2022-07-01T02:38:22;3.58;;;1.70;;
62153;SDS011;48140;45.486;9.226;2022-07-01T02:40:48;2.75;;;1.70;;
62153;SDS011;48140;45.486;9.226;2022-07-01T02:43:13;3.30;;;1.75;;
62153;SDS011;48140;45.486;9.226;2022-07-01T02:45:41;7.70;;;1.98;;
62153;SDS011;48140;45.486;9.226;2022-07-01T02:48:07;3.53;;;1.73;;
62153;SDS011;48140;45.486;9.226;2022-07-01T02:50:34;3.28;;;1.73;;
62153;SDS011;48140;45.486;9.226;2022-07-01T02:52:59;3.78;;;2.20;;
62153;SDS011;48140;45.486;9.226;2022-07-01T02:55:25;3.50;;;1.83;;
62153;SDS011;48140;45.486;9.226;2022-07-01T02:57:51;4.75;;;1.98;;
62153;SDS011;48140;45.486;9.226;2022-07-01T03:00:18;7.28;;;1.98;;
62153;SDS011;48140;45.486;9.226;2022-07-01T03:02:44;4.90;;;2.10;;
62153;SDS011;48140;45.486;9.226;2022-07-01T03:05:10;3.67;;;2.00;;
62153;SDS011;48140;45.486;9.226;2022-07-01T03:07:37;5.25;;;1.90;;
62153;SDS011;48140;45.486;9.226;2022-07-01T03:10:03;7.32;;;2.35;;
62153;SDS011;48140;45.486;9.226;2022-07-01T03:12:30;5.90;;;2.00;;
62153;SDS011;48140;45.486;9.226;2022-07-01T03:15:03;4.95;;;2.15;;
62153;SDS011;48140;45.486;9.226;2022-07-01T03:17:32;4.70;;;2.28;;
62153;SDS011;48140;45.486;9.226;2022-07-01T03:20:00;4.55;;;2.30;;
62153;SDS011;48140;45.486;9.226;2022-07-01T03:22:29;3.47;;;2.20;;
62153;SDS011;48140;45.486;9.226;2022-07-01T03:24:56;8.65;;;2.50;;
62153;SDS011;48140;45.486;9.226;2022-07-01T03:27:22;5.38;;;2.65;;
62153;SDS011;48140;45.486;9.226;2022-07-01T03:29:49;5.45;;;3.50;;
62153;SDS011;48140;45.486;9.226;2022-07-01T03:32:15;8.88;;;3.97;;
62153;SDS011;48140;45.486;9.226;2022-07-01T03:34:42;5.80;;;2.78;;
62153;SDS011;48140;45.486;9.226;2022-07-01T03:37:10;7.50;;;3.08;;
62153;SDS011;48140;45.486;9.226;2022-07-01T03:39:38;8.00;;;3.90;;
62153;SDS011;48140;45.486;9.226;2022-07-01T03:42:04;6.20;;;3.83;;
62153;SDS011;48140;45.486;9.226;2022-07-01T03:44:31;8.70;;;3.78;;
62153;SDS011;48140;45.486;9.226;2022-07-01T03:46:56;7.10;;;3.90;;
62153;SDS011;48140;45.486;9.226;2022-07-01T03:49:22;6.88;;;3.58;;
62153;SDS011;48140;45.486;9.226;2022-07-01T03:51:50;8.02;;;4.30;;
62153;SDS011;48140;45.486;9.226;2022-07-01T03:54:16;7.10;;;4.00;;
62153;SDS011;48140;45.486;9.226;2022-07-01T03:57:07;9.63;;;4.78;;
62153;SDS011;48140;45.486;9.226;2022-07-01T03:59:38;8.48;;;4.28;;
62153;SDS011;48140;45.486;9.226;2022-07-01T04:02:05;8.68;;;4.50;;
62153;SDS011;48140;45.486;9.226;2022-07-01T04:04:32;9.90;;;4.30;;
62153;SDS011;48140;45.486;9.226;2022-07-01T04:06:59;7.13;;;4.35;;
62153;SDS011;48140;45.486;9.226;2022-07-01T04:09:27;12.68;;;4.82;;
62153;SDS011;48140;45.486;9.226;2022-07-01T04:11:53;8.32;;;4.50;;
62153;SDS011;48140;45.486;9.226;2022-07-01T04:14:19;8.88;;;4.95;;
62153;SDS011;48140;45.486;9.226;2022-07-01T04:16:45;10.05;;;3.90;;
62153;SDS011;48140;45.486;9.226;2022-07-01T04:19:12;7.22;;;3.90;;
62153;SDS011;48140;45.486;9.226;2022-07-01T04:21:39;7.47;;;3.65;;
62153;SDS011;48140;45.486;9.226;2022-07-01T04:24:24;9.82;;;3.47;;
62153;SDS011;48140;45.486;9.226;2022-07-01T04:26:50;8.23;;;2.95;;
62153;SDS011;48140;45.486;9.226;2022-07-01T04:29:17;7.53;;;3.20;;
62153;SDS011;48140;45.486;9.226;2022-07-01T04:31:43;8.90;;;3.85;;
62153;SDS011;48140;45.486;9.226;2022-07-01T04:34:09;12.10;;;3.80;;
62153;SDS011;48140;45.486;9.226;2022-07-01T04:36:36;9.63;;;4.50;;
62153;SDS011;48140;45.486;9.226;2022-07-01T04:39:02;10.00;;;4.35;;
62153;SDS011;48140;45.486;9.226;2022-07-01T04:41:29;10.23;;;4.43;;
62153;SDS011;48140;45.486;9.226;2022-07-01T04:44:14;9.38;;;4.07;;
62153;SDS011;48140;45.486;9.226;2022-07-01T04:46:40;10.52;;;4.50;;
62153;SDS011;48140;45.486;9.226;2022-07-01T04:49:06;7.32;;;4.00;;
62153;SDS011;48140;45.486;9.226;2022-07-01T04:51:32;8.15;;;4.05;;
62153;SDS011;48140;45.486;9.226;2022-07-01T04:54:00;8.25;;;3.72;;
62153;SDS011;48140;45.486;9.226;2022-07-01T04:56:26;9.70;;;3.92;;
62153;SDS011;48140;45.486;9.226;2022-07-01T04:58:54;10.32;;;4.07;;
62153;SDS011;48140;45.486;9.226;2022-07-01T05:01:20;7.28;;;4.05;;
62153;SDS011;48140;45.486;9.226;2022-07-01T05:03:46;9.02;;;4.97;;
62153;SDS011;48140;45.486;9.226;2022-07-01T05:06:11;9.85;;;5.00;;
62153;SDS011;48140;45.486;9.226;2022-07-01T05:08:37;11.35;;;4.22;;
62153;SDS011;48140;45.486;9.226;2022-07-01T05:11:03;10.93;;;5.28;;
62153;SDS011;48140;45.486;9.226;2022-07-01T05:13:29;9.88;;;5.75;;
62153;SDS011;48140;45.486;9.226;2022-07-01T05:15:54;10.70;;;6.43;;
62153;SDS011;48140;45.486;9.226;2022-07-01T05:18:20;14.25;;;6.38;;
62153;SDS011;48140;45.486;9.226;2022-07-01T05:21:05;14.00;;;6.57;;
62153;SDS011;48140;45.486;9.226;2022-07-01T05:23:49;13.45;;;6.70;;
62153;SDS011;48140;45.486;9.226;2022-07-01T05:26:14;12.00;;;5.70;;
62153;SDS011;48140;45.486;9.226;2022-07-01T05:28:43;14.27;;;7.07;;
62153;SDS011;48140;45.486;9.226;2022-07-01T05:31:09;11.75;;;6.90;;
62153;SDS011;48140;45.486;9.226;2022-07-01T05:33:35;17.23;;;7.38;;
62153;SDS011;48140;45.486;9.226;2022-07-01T05:36:04;11.63;;;6.88;;
62153;SDS011;48140;45.486;9.226;2022-07-01T05:38:30;17.05;;;7.63;;
62153;SDS011;48140;45.486;9.226;2022-07-01T05:40:56;15.55;;;8.07;;
62153;SDS011;48140;45.486;9.226;2022-07-01T05:43:22;12.40;;;7.35;;
62153;SDS011;48140;45.486;9.226;2022-07-01T05:45:48;17.23;;;8.88;;
62153;SDS011;48140;45.486;9.226;2022-07-01T05:48:13;14.05;;;8.07;;
62153;SDS011;48140;45.486;9.226;2022-07-01T05:50:39;12.02;;;8.05;;
62153;SDS011;48140;45.486;9.226;2022-07-01T05:53:05;11.90;;;7.72;;
62153;SDS011;48140;45.486;9.226;2022-07-01T05:55:32;12.68;;;7.68;;
62153;SDS011;48140;45.486;9.226;2022-07-01T05:57:58;16.20;;;9.18;;
62153;SDS011;48140;45.486;9.226;2022-07-01T06:00:24;13.75;;;7.40;;
62153;SDS011;48140;45.486;9.226;2022-07-01T06:02:49;17.25;;;8.82;;
62153;SDS011;48140;45.486;9.226;2022-07-01T06:05:17;18.23;;;10.20;;
62153;SDS011;48140;45.486;9.226;2022-07-01T06:07:42;15.75;;;8.88;;
62153;SDS011;48140;45.486;9.226;2022-07-01T06:10:08;13.52;;;8.75;;
62153;SDS011;48140;45.486;9.226;2022-07-01T06:12:35;13.30;;;8.85;;
62153;SDS011;48140;45.486;9.226;2022-07-01T06:15:08;14.40;;;7.82;;
62153;SDS011;48140;45.486;9.226;2022-07-01T06:17:35;15.75;;;9.07;;
62153;SDS011;48140;45.486;9.226;2022-07-01T06:20:03;15.70;;;8.63;;
62153;SDS011;48140;45.486;9.226;2022-07-01T06:22:30;12.52;;;8.40;;
62153;SDS011;48140;45.486;9.226;2022-07-01T06:24:56;14.88;;;8.60;;
62153;SDS011;48140;45.486;9.226;2022-07-01T06:27:21;14.35;;;9.27;;
62153;SDS011;48140;45.486;9.226;2022-07-01T06:29:48;13.88;;;10.70;;
62153;SDS011;48140;45.486;9.226;2022-07-01T06:32:15;25.83;;;9.20;;
62153;SDS011;48140;45.486;9.226;2022-07-01T06:34:41;17.40;;;8.85;;
62153;SDS011;48140;45.486;9.226;2022-07-01T06:37:09;17.88;;;9.60;;
62153;SDS011;48140;45.486;9.226;2022-07-01T06:39:35;16.92;;;9.02;;
62153;SDS011;48140;45.486;9.226;2022-07-01T06:42:00;13.60;;;8.75;;
62153;SDS011;48140;45.486;9.226;2022-07-01T06:44:26;13.48;;;8.38;;
62153;SDS011;48140;45.486;9.226;2022-07-01T06:46:52;15.23;;;9.35;;
62153;SDS011;48140;45.486;9.226;2022-07-01T06:49:18;17.10;;;9.15;;
62153;SDS011;48140;45.486;9.226;2022-07-01T06:51:44;16.02;;;9.40;;
62153;SDS011;48140;45.486;9.226;2022-07-01T06:54:09;14.95;;;8.82;;
62153;SDS011;48140;45.486;9.226;2022-07-01T06:56:35;15.13;;;9.45;;
62153;SDS011;48140;45.486;9.226;2022-07-01T06:59:01;20.10;;;9.98;;
62153;SDS011;48140;45.486;9.226;2022-07-01T07:01:30;18.13;;;8.25;;
62153;SDS011;48140;45.486;9.226;2022-07-01T07:03:55;14.57;;;10.00;;
62153;SDS011;48140;45.486;9.226;2022-07-01T07:06:21;13.43;;;9.40;;
62153;SDS011;48140;45.486;9.226;2022-07-01T07:08:47;14.25;;;8.65;;
62153;SDS011;48140;45.486;9.226;2022-07-01T07:11:13;13.02;;;8.20;;
62153;SDS011;48140;45.486;9.226;2022-07-01T07:13:45;11.77;;;8.35;;
62153;SDS011;48140;45.486;9.226;2022-07-01T07:16:10;24.23;;;10.63;;
62153;SDS011;48140;45.486;9.226;2022-07-01T07:18:36;20.08;;;10.50;;
62153;SDS011;48140;45.486;9.226;2022-07-01T07:21:02;18.75;;;9.95;;
62153;SDS011;48140;45.486;9.226;2022-07-01T07:23:28;17.42;;;8.07;;
62153;SDS011;48140;45.486;9.226;2022-07-01T07:26:00;17.30;;;8.73;;
62153;SDS011;48140;45.486;9.226;2022-07-01T07:28:26;20.63;;;9.95;;
62153;SDS011;48140;45.486;9.226;2022-07-01T07:30:55;11.75;;;8.60;;
62153;SDS011;48140;45.486;9.226;2022-07-01T07:33:21;14.85;;;8.40;;
62153;SDS011;48140;45.486;9.226;2022-07-01T07:35:47;14.57;;;7.90;;
62153;SDS011;48140;45.486;9.226;2022-07-01T07:38:13;11.02;;;5.22;;
62153;SDS011;48140;45.486;9.226;2022-07-01T07:40:38;9.10;;;4.93;;
62153;SDS011;48140;45.486;9.226;2022-07-01T07:43:04;8.15;;;4.60;;
62153;SDS011;48140;45.486;9.226;2022-07-01T07:45:32;8.00;;;4.10;;
62153;SDS011;48140;45.486;9.226;2022-07-01T07:47:58;8.73;;;3.80;;
62153;SDS011;48140;45.486;9.226;2022-07-01T07:50:24;8.95;;;3.70;;
62153;SDS011;48140;45.486;9.226;2022-07-01T07:52:50;6.32;;;2.90;;
62153;SDS011;48140;45.486;9.226;2022-07-01T07:55:16;6.30;;;2.67;;
62153;SDS011;48140;45.486;9.226;2022-07-01T07:57:41;3.63;;;2.25;;
62153;SDS011;48140;45.486;9.226;2022-07-01T08:00:08;3.03;;;1.85;;
62153;SDS011;48140;45.486;9.226;2022-07-01T08:02:36;5.40;;;2.15;;
62153;SDS011;48140;45.486;9.226;2022-07-01T08:05:01;4.15;;;2.03;;
62153;SDS011;48140;45.486;9.226;2022-07-01T08:07:27;2.95;;;1.88;;
62153;SDS011;48140;45.486;9.226;2022-07-01T08:09:53;4.35;;;2.08;;
62153;SDS011;48140;45.486;9.226;2022-07-01T08:12:20;8.95;;;2.10;;
62153;SDS011;48140;45.486;9.226;2022-07-01T08:14:47;4.57;;;2.08;;
62153;SDS011;48140;45.486;9.226;2022-07-01T08:17:12;5.60;;;1.80;;
62153;SDS011;48140;45.486;9.226;2022-07-01T08:19:38;6.22;;;2.05;;
62153;SDS011;48140;45.486;9.226;2022-07-01T08:22:04;4.78;;;1.90;;
62153;SDS011;48140;45.486;9.226;2022-07-01T08:24:30;5.10;;;1.70;;
62153;SDS011;48140;45.486;9.226;2022-07-01T08:26:55;6.43;;;2.00;;
62153;SDS011;48140;45.486;9.226;2022-07-01T08:29:21;4.40;;;1.80;;
62153;SDS011;48140;45.486;9.226;2022-07-01T08:31:47;4.22;;;1.63;;
62153;SDS011;48140;45.486;9.226;2022-07-01T08:34:12;5.50;;;2.03;;
62153;SDS011;48140;45.486;9.226;2022-07-01T08:36:38;4.18;;;1.70;;
62153;SDS011;48140;45.486;9.226;2022-07-01T08:39:04;4.38;;;1.80;;
62153;SDS011;48140;45.486;9.226;2022-07-01T08:41:29;3.70;;;1.83;;
62153;SDS011;48140;45.486;9.226;2022-07-01T08:43:55;3.50;;;1.80;;
62153;SDS011;48140;45.486;9.226;2022-07-01T08:46:21;3.92;;;1.83;;
62153;SDS011;48140;45.486;9.226;2022-07-01T08:48:50;3.20;;;1.67;;
62153;SDS011;48140;45.486;9.226;2022-07-01T08:51:16;3.53;;;1.70;;
62153;SDS011;48140;45.486;9.226;2022-07-01T08:53:41;5.93;;;1.75;;
62153;SDS011;48140;45.486;9.226;2022-07-01T08:56:08;3.28;;;1.75;;
62153;SDS011;48140;45.486;9.226;2022-07-01T08:58:52;3.45;;;1.80;;
62153;SDS011;48140;45.486;9.226;2022-07-01T09:01:20;3.28;;;1.55;;
62153;SDS011;48140;45.486;9.226;2022-07-01T09:03:47;3.47;;;1.63;;
62153;SDS011;48140;45.486;9.226;2022-07-01T09:06:21;3.35;;;1.75;;
62153;SDS011;48140;45.486;9.226;2022-07-01T09:08:54;2.97;;;1.80;;
62153;SDS011;48140;45.486;9.226;2022-07-01T09:11:24;2.63;;;1.50;;
62153;SDS011;48140;45.486;9.226;2022-07-01T09:14:10;3.38;;;1.88;;
62153;SDS011;48140;45.486;9.226;2022-07-01T09:16:47;3.10;;;1.60;;
62153;SDS011;48140;45.486;9.226;2022-07-01T09:19:15;6.35;;;2.08;;
62153;SDS011;48140;45.486;9.226;2022-07-01T09:21:41;2.78;;;1.50;;
62153;SDS011;48140;45.486;9.226;2022-07-01T09:26:53;5.85;;;2.42;;
62153;SDS011;48140;45.486;9.226;2022-07-01T09:29:24;3.60;;;2.20;;
62153;SDS011;48140;45.486;9.226;2022-07-01T09:31:56;5.20;;;1.70;;
62153;SDS011;48140;45.486;9.226;2022-07-01T09:34:23;3.28;;;1.83;;
62153;SDS011;48140;45.486;9.226;2022-07-01T09:36:53;2.00;;;1.55;;
62153;SDS011;48140;45.486;9.226;2022-07-01T09:39:21;2.45;;;2.15;;
62153;SDS011;48140;45.486;9.226;2022-07-01T09:41:47;5.10;;;1.80;;
62153;SDS011;48140;45.486;9.226;2022-07-01T09:44:13;3.00;;;1.88;;
62153;SDS011;48140;45.486;9.226;2022-07-01T09:46:50;4.35;;;1.85;;
62153;SDS011;48140;45.486;9.226;2022-07-01T09:49:17;3.85;;;1.88;;
62153;SDS011;48140;45.486;9.226;2022-07-01T09:51:43;4.43;;;2.30;;
62153;SDS011;48140;45.486;9.226;2022-07-01T09:54:10;3.88;;;1.88;;
62153;SDS011;48140;45.486;9.226;2022-07-01T09:56:37;3.95;;;1.67;;
62153;SDS011;48140;45.486;9.226;2022-07-01T09:59:03;10.65;;;1.80;;
62153;SDS011;48140;45.486;9.226;2022-07-01T10:01:29;3.25;;;1.83;;
62153;SDS011;48140;45.486;9.226;2022-07-01T10:03:57;3.55;;;2.08;;
62153;SDS011;48140;45.486;9.226;2022-07-01T10:14:26;2.70;;;1.70;;
62153;SDS011;48140;45.486;9.226;2022-07-01T10:16:53;2.50;;;1.83;;
62153;SDS011;48140;45.486;9.226;2022-07-01T10:21:49;4.72;;;2.10;;
62153;SDS011;48140;45.486;9.226;2022-07-01T10:24:17;4.65;;;2.00;;
62153;SDS011;48140;45.486;9.226;2022-07-01T10:26:44;3.38;;;1.98;;
62153;SDS011;48140;45.486;9.226;2022-07-01T10:32:01;4.65;;;2.03;;
62153;SDS011;48140;45.486;9.226;2022-07-01T10:34:36;1.95;;;1.63;;
62153;SDS011;48140;45.486;9.226;2022-07-01T10:37:05;3.67;;;1.83;;
62153;SDS011;48140;45.486;9.226;2022-07-01T10:42:19;4.13;;;2.00;;
62153;SDS011;48140;45.486;9.226;2022-07-01T10:47:29;5.97;;;2.10;;
62153;SDS011;48140;45.486;9.226;2022-07-01T10:49:56;5.20;;;2.05;;
62153;SDS011;48140;45.486;9.226;2022-07-01T10:52:33;4.15;;;1.90;;
62153;SDS011;48140;45.486;9.226;2022-07-01T10:54:59;2.95;;;1.60;;
62153;SDS011;48140;45.486;9.226;2022-07-01T11:02:25;3.75;;;2.20;;
62153;SDS011;48140;45.486;9.226;2022-07-01T11:04:54;4.82;;;2.35;;
62153;SDS011;48140;45.486;9.226;2022-07-01T11:09:51;4.03;;;1.77;;
62153;SDS011;48140;45.486;9.226;2022-07-01T11:12:19;5.90;;;1.80;;
62153;SDS011;48140;45.486;9.226;2022-07-01T11:14:48;2.72;;;1.75;;
62153;SDS011;48140;45.486;9.226;2022-07-01T11:17:15;3.30;;;1.90;;
62153;SDS011;48140;45.486;9.226;2022-07-01T11:19:57;4.28;;;1.90;;
62153;SDS011;48140;45.486;9.226;2022-07-01T11:22:26;5.65;;;1.80;;
62153;SDS011;48140;45.486;9.226;2022-07-01T11:24:54;4.75;;;2.00;;
62153;SDS011;48140;45.486;9.226;2022-07-01T11:27:22;3.50;;;1.75;;
62153;SDS011;48140;45.486;9.226;2022-07-01T11:29:59;3.40;;;1.95;;
62153;SDS011;48140;45.486;9.226;2022-07-01T11:32:30;3.97;;;1.90;;
62153;SDS011;48140;45.486;9.226;2022-07-01T11:34:58;4.28;;;2.08;;
62153;SDS011;48140;45.486;9.226;2022-07-01T11:37:29;2.25;;;1.60;;
62153;SDS011;48140;45.486;9.226;2022-07-01T11:40:15;3.30;;;1.67;;
62153;SDS011;48140;45.486;9.226;2022-07-01T11:42:42;4.72;;;2.03;;
62153;SDS011;48140;45.486;9.226;2022-07-01T11:45:21;5.45;;;2.10;;
62153;SDS011;48140;45.486;9.226;2022-07-01T11:47:49;5.45;;;2.22;;
62153;SDS011;48140;45.486;9.226;2022-07-01T11:50:15;3.35;;;2.25;;
62153;SDS011;48140;45.486;9.226;2022-07-01T11:52:41;7.50;;;2.13;;
62153;SDS011;48140;45.486;9.226;2022-07-01T11:55:07;4.22;;;2.00;;
62153;SDS011;48140;45.486;9.226;2022-07-01T11:57:33;4.63;;;2.00;;
62153;SDS011;48140;45.486;9.226;2022-07-01T12:00:07;3.45;;;1.90;;
62153;SDS011;48140;45.486;9.226;2022-07-01T12:02:35;4.72;;;2.10;;
62153;SDS011;48140;45.486;9.226;2022-07-01T12:05:01;4.40;;;2.10;;
62153;SDS011;48140;45.486;9.226;2022-07-01T12:07:27;3.38;;;1.90;;
62153;SDS011;48140;45.486;9.226;2022-07-01T12:09:54;6.10;;;2.00;;
62153;SDS011;48140;45.486;9.226;2022-07-01T12:12:20;3.17;;;2.13;;
62153;SDS011;48140;45.486;9.226;2022-07-01T12:14:49;5.82;;;2.40;;
62153;SDS011;48140;45.486;9.226;2022-07-01T12:17:23;2.50;;;1.80;;
62153;SDS011;48140;45.486;9.226;2022-07-01T12:19:50;5.30;;;1.83;;
62153;SDS011;48140;45.486;9.226;2022-07-01T12:24:44;3.13;;;1.60;;
62153;SDS011;48140;45.486;9.226;2022-07-01T12:27:11;4.68;;;1.95;;
62153;SDS011;48140;45.486;9.226;2022-07-01T12:29:48;8.35;;;1.80;;
62153;SDS011;48140;45.486;9.226;2022-07-01T12:32:19;4.20;;;1.90;;
62153;SDS011;48140;45.486;9.226;2022-07-01T12:40:01;4.25;;;2.08;;
62153;SDS011;48140;45.486;9.226;2022-07-01T12:42:34;3.55;;;1.98;;
62153;SDS011;48140;45.486;9.226;2022-07-01T12:45:05;4.28;;;2.22;;
62153;SDS011;48140;45.486;9.226;2022-07-01T12:47:33;4.75;;;1.95;;
62153;SDS011;48140;45.486;9.226;2022-07-01T12:50:19;2.53;;;1.83;;
62153;SDS011;48140;45.486;9.226;2022-07-01T12:58:04;2.33;;;1.75;;
62153;SDS011;48140;45.486;9.226;2022-07-01T13:00:37;2.95;;;2.05;;
62153;SDS011;48140;45.486;9.226;2022-07-01T13:03:04;7.70;;;2.00;;
62153;SDS011;48140;45.486;9.226;2022-07-01T13:05:31;3.78;;;1.75;;
62153;SDS011;48140;45.486;9.226;2022-07-01T13:07:58;4.38;;;1.92;;
62153;SDS011;48140;45.486;9.226;2022-07-01T13:10:24;3.67;;;2.10;;
62153;SDS011;48140;45.486;9.226;2022-07-01T13:12:50;2.30;;;1.73;;
62153;SDS011;48140;45.486;9.226;2022-07-01T13:15:16;12.10;;;1.75;;
62153;SDS011;48140;45.486;9.226;2022-07-01T13:17:43;3.50;;;2.03;;
62153;SDS011;48140;45.486;9.226;2022-07-01T13:20:10;3.90;;;1.92;;
62153;SDS011;48140;45.486;9.226;2022-07-01T13:22:36;2.17;;;1.70;;
62153;SDS011;48140;45.486;9.226;2022-07-01T13:25:03;4.78;;;1.80;;
62153;SDS011;48140;45.486;9.226;2022-07-01T13:27:32;7.80;;;2.00;;
62153;SDS011;48140;45.486;9.226;2022-07-01T13:29:58;2.95;;;1.67;;
62153;SDS011;48140;45.486;9.226;2022-07-01T13:32:24;9.40;;;2.10;;
62153;SDS011;48140;45.486;9.226;2022-07-01T13:34:51;5.30;;;2.15;;
62153;SDS011;48140;45.486;9.226;2022-07-01T13:37:17;3.60;;;1.75;;
62153;SDS011;48140;45.486;9.226;2022-07-01T13:39:43;8.65;;;1.88;;
62153;SDS011;48140;45.486;9.226;2022-07-01T13:42:09;4.10;;;1.80;;
62153;SDS011;48140;45.486;9.226;2022-07-01T13:44:35;5.03;;;1.90;;
62153;SDS011;48140;45.486;9.226;2022-07-01T13:47:01;5.93;;;2.08;;
62153;SDS011;48140;45.486;9.226;2022-07-01T13:49:30;3.05;;;1.80;;
62153;SDS011;48140;45.486;9.226;2022-07-01T13:51:56;4.82;;;2.20;;
62153;SDS011;48140;45.486;9.226;2022-07-01T13:54:22;4.60;;;1.92;;
62153;SDS011;48140;45.486;9.226;2022-07-01T13:56:47;6.55;;;1.98;;
62153;SDS011;48140;45.486;9.226;2022-07-01T13:59:13;3.75;;;1.85;;
62153;SDS011;48140;45.486;9.226;2022-07-01T14:01:38;4.15;;;2.00;;
62153;SDS011;48140;45.486;9.226;2022-07-01T14:04:04;4.75;;;1.80;;
62153;SDS011;48140;45.486;9.226;2022-07-01T14:06:30;4.28;;;1.98;;
62153;SDS011;48140;45.486;9.226;2022-07-01T14:08:56;2.33;;;1.85;;
62153;SDS011;48140;45.486;9.226;2022-07-01T14:11:22;4.25;;;1.90;;
62153;SDS011;48140;45.486;9.226;2022-07-01T14:13:47;5.97;;;1.90;;
62153;SDS011;48140;45.486;9.226;2022-07-01T14:16:14;2.83;;;1.65;;
62153;SDS011;48140;45.486;9.226;2022-07-01T14:18:39;3.80;;;2.00;;
62153;SDS011;48140;45.486;9.226;2022-07-01T14:21:05;4.07;;;2.17;;
62153;SDS011;48140;45.486;9.226;2022-07-01T14:23:32;5.60;;;2.22;;
62153;SDS011;48140;45.486;9.226;2022-07-01T14:25:58;4.68;;;1.98;;
62153;SDS011;48140;45.486;9.226;2022-07-01T14:28:24;4.82;;;2.35;;
62153;SDS011;48140;45.486;9.226;2022-07-01T14:30:50;2.45;;;1.70;;
62153;SDS011;48140;45.486;9.226;2022-07-01T14:33:16;2.70;;;1.63;;
62153;SDS011;48140;45.486;9.226;2022-07-01T14:35:43;3.60;;;1.90;;
62153;SDS011;48140;45.486;9.226;2022-07-01T14:38:09;3.33;;;1.95;;
62153;SDS011;48140;45.486;9.226;2022-07-01T14:40:36;2.80;;;1.98;;
62153;SDS011;48140;45.486;9.226;2022-07-01T14:43:03;3.80;;;1.90;;
62153;SDS011;48140;45.486;9.226;2022-07-01T14:45:28;2.30;;;1.70;;
62153;SDS011;48140;45.486;9.226;2022-07-01T14:47:54;4.07;;;2.10;;
62153;SDS011;48140;45.486;9.226;2022-07-01T14:50:20;4.57;;;2.13;;
62153;SDS011;48140;45.486;9.226;2022-07-01T14:52:47;4.85;;;1.80;;
62153;SDS011;48140;45.486;9.226;2022-07-01T14:55:13;4.28;;;1.88;;
62153;SDS011;48140;45.486;9.226;2022-07-01T14:57:39;4.07;;;2.00;;
62153;SDS011;48140;45.486;9.226;2022-07-01T15:00:05;4.40;;;1.80;;
62153;SDS011;48140;45.486;9.226;2022-07-01T15:02:32;3.72;;;1.80;;
62153;SDS011;48140;45.486;9.226;2022-07-01T15:05:00;3.50;;;2.42;;
62153;SDS011;48140;45.486;9.226;2022-07-01T15:07:26;5.82;;;1.88;;
62153;SDS011;48140;45.486;9.226;2022-07-01T15:09:53;4.18;;;1.83;;
62153;SDS011;48140;45.486;9.226;2022-07-01T15:12:21;2.88;;;1.70;;
62153;SDS011;48140;45.486;9.226;2022-07-01T15:14:47;3.63;;;2.08;;
62153;SDS011;48140;45.486;9.226;2022-07-01T15:17:13;3.83;;;1.70;;
62153;SDS011;48140;45.486;9.226;2022-07-01T15:19:39;2.85;;;1.80;;
62153;SDS011;48140;45.486;9.226;2022-07-01T15:22:06;2.13;;;1.70;;
62153;SDS011;48140;45.486;9.226;2022-07-01T15:24:36;3.25;;;1.50;;
62153;SDS011;48140;45.486;9.226;2022-07-01T15:27:03;3.88;;;1.80;;
62153;SDS011;48140;45.486;9.226;2022-07-01T15:29:29;2.42;;;1.50;;